createdAt,value
2023-02-02T01:29:28.155Z,8.02
2023-02-02T01:32:00.022Z,8.65
2023-02-02T01:34:29.307Z,8.27
2023-02-02T01:36:58.769Z,7.22
2023-02-02T01:39:28.312Z,7.68
2023-02-02T01:41:58.616Z,7.70
2023-02-02T01:45:06.196Z,8.88
2023-02-02T01:47:39.636Z,7.95
2023-02-02T01:50:11.491Z,8.30
2023-02-02T01:52:44.127Z,8.07
2023-02-02T01:55:15.957Z,7.93
2023-02-02T01:57:48.100Z,7.82
2023-02-02T02:00:25.014Z,7.45
2023-02-02T02:02:57.829Z,7.85
2023-02-02T02:05:34.545Z,7.60
2023-02-02T02:08:09.623Z,8.35
2023-02-02T02:10:39.993Z,6.53
2023-02-02T02:13:09.461Z,7.88
2023-02-02T02:16:02.736Z,8.07
2023-02-02T02:18:41.188Z,7.40
2023-02-02T02:22:06.193Z,7.72
2023-02-02T02:28:31.575Z,8.77
2023-02-02T02:31:26.939Z,8.23
2023-02-02T02:34:02.804Z,8.10
2023-02-02T02:36:41.911Z,8.10
2023-02-02T02:39:17.340Z,9.13
2023-02-02T02:41:51.469Z,8.38
2023-02-02T02:44:23.164Z,7.13
2023-02-02T02:46:52.750Z,9.30
2023-02-02T02:49:23.704Z,9.00
2023-02-02T02:51:54.675Z,8.30
2023-02-02T02:54:40.877Z,7.13
2023-02-02T02:57:28.625Z,9.48
2023-02-02T03:00:06.207Z,7.97
2023-02-02T03:02:43.641Z,6.88
2023-02-02T03:05:25.194Z,8.05
2023-02-02T03:08:04.251Z,8.02
2023-02-02T03:10:34.111Z,7.45
2023-02-02T03:13:08.736Z,8.43
2023-02-02T03:15:38.062Z,7.75
2023-02-02T03:18:07.546Z,7.65
2023-02-02T03:20:38.496Z,7.82
2023-02-02T03:23:07.679Z,8.40
2023-02-02T03:25:37.153Z,7.53
2023-02-02T03:28:07.568Z,8.25
2023-02-02T03:30:37.359Z,7.38
2023-02-02T03:33:07.370Z,8.63
2023-02-02T03:35:36.755Z,8.57
2023-02-02T03:38:07.166Z,7.20
2023-02-02T03:40:36.507Z,7.82
2023-02-02T03:43:05.648Z,7.88
2023-02-02T03:45:35.567Z,6.97
2023-02-02T03:48:05.961Z,6.88
2023-02-02T03:50:35.799Z,8.73
2023-02-02T03:53:06.476Z,8.40
2023-02-02T03:55:35.584Z,7.72
2023-02-02T03:58:04.774Z,7.47
2023-02-02T04:00:34.201Z,8.93
2023-02-02T04:03:03.708Z,7.63
2023-02-02T04:05:33.302Z,8.50
2023-02-02T04:08:02.501Z,8.15
2023-02-02T04:10:33.221Z,7.55
2023-02-02T04:13:02.512Z,8.70
2023-02-02T04:15:31.628Z,8.15
2023-02-02T04:18:00.707Z,7.88
2023-02-02T04:20:30.082Z,7.68
2023-02-02T04:22:59.067Z,9.15
2023-02-02T04:25:28.372Z,7.82
2023-02-02T04:27:58.955Z,8.20
2023-02-02T04:30:28.077Z,9.30
2023-02-02T04:32:57.311Z,8.80
2023-02-02T04:35:26.687Z,8.10
2023-02-02T04:37:56.655Z,9.40
2023-02-02T04:40:26.259Z,8.52
2023-02-02T04:42:55.328Z,8.32
2023-02-02T04:45:26.350Z,9.35
2023-02-02T04:47:55.590Z,8.38
2023-02-02T04:50:24.815Z,7.70
2023-02-02T04:52:54.157Z,9.23
2023-02-02T04:55:24.077Z,8.55
2023-02-02T04:57:53.804Z,8.32
2023-02-02T05:00:23.163Z,7.97
2023-02-02T05:02:54.260Z,8.75
2023-02-02T05:05:23.757Z,8.50
2023-02-02T05:07:53.365Z,9.00
2023-02-02T05:10:22.928Z,8.60
2023-02-02T05:12:54.053Z,7.93
2023-02-02T05:15:24.434Z,8.27
2023-02-02T05:17:55.084Z,7.68
2023-02-02T05:20:24.276Z,7.53
2023-02-02T05:22:53.577Z,8.13
2023-02-02T05:25:23.173Z,7.88
2023-02-02T05:27:52.692Z,8.05
2023-02-02T05:30:21.766Z,8.75
2023-02-02T05:32:51.080Z,8.25
2023-02-02T05:35:21.584Z,8.63
2023-02-02T05:37:51.156Z,7.18
2023-02-02T05:40:20.637Z,8.68
2023-02-02T05:42:50.498Z,8.30
2023-02-02T05:45:19.717Z,8.90
2023-02-02T05:47:48.848Z,8.13
2023-02-02T05:50:18.497Z,8.38
2023-02-02T05:53:01.568Z,8.60
2023-02-02T05:55:30.876Z,8.15
2023-02-02T05:58:00.137Z,9.25
2023-02-02T06:00:31.172Z,9.13
2023-02-02T06:03:00.996Z,9.13
2023-02-02T06:05:30.220Z,9.05
2023-02-02T06:08:01.702Z,8.98
2023-02-02T06:10:31.652Z,8.98
2023-02-02T06:13:04.950Z,11.52
2023-02-02T06:15:35.267Z,9.73
2023-02-02T06:18:06.791Z,10.45
2023-02-02T06:20:36.204Z,10.43
2023-02-02T06:23:07.390Z,9.27
2023-02-02T06:25:40.993Z,10.18
2023-02-02T06:28:10.575Z,8.75
2023-02-02T06:30:39.847Z,10.32
2023-02-02T06:33:09.632Z,10.77
2023-02-02T06:35:39.319Z,9.93
2023-02-02T06:38:11.041Z,9.73
2023-02-02T06:40:40.818Z,9.70
2023-02-02T06:43:11.636Z,9.57
2023-02-02T06:45:41.767Z,10.00
2023-02-02T06:48:16.384Z,9.63
2023-02-02T06:50:45.837Z,9.15
2023-02-02T06:53:22.249Z,10.55
2023-02-02T06:55:55.892Z,9.73
2023-02-02T06:58:25.248Z,10.40
2023-02-02T07:00:55.926Z,7.88
2023-02-02T07:03:25.126Z,9.38
2023-02-02T07:05:55.996Z,11.18
2023-02-02T07:08:26.907Z,8.93
2023-02-02T07:11:14.206Z,9.40
2023-02-02T07:13:46.204Z,10.93
2023-02-02T07:16:16.771Z,7.95
2023-02-02T07:18:48.322Z,8.77
2023-02-02T07:21:20.526Z,9.20
2023-02-02T10:17:42.192Z,10.32
2023-02-02T10:20:23.470Z,9.80
2023-02-02T10:22:58.413Z,9.63
2023-02-02T10:25:30.885Z,8.75
2023-02-02T10:28:07.661Z,10.00
2023-02-02T10:30:46.429Z,9.40
2023-02-02T10:33:34.679Z,9.10
2023-02-02T10:36:18.509Z,11.93
2023-02-02T10:38:55.280Z,9.80
2023-02-02T10:41:32.869Z,9.55
2023-02-02T10:44:13.408Z,11.48
2023-02-02T10:46:46.513Z,9.90
2023-02-02T10:49:27.387Z,10.47
2023-02-02T10:52:06.578Z,10.45
2023-02-02T10:54:56.365Z,9.73
2023-02-02T10:57:48.769Z,9.80
2023-02-02T11:00:23.881Z,9.80
2023-02-02T11:02:54.610Z,9.18
2023-02-02T11:05:45.175Z,9.68
2023-02-02T11:08:20.221Z,9.45
2023-02-02T11:10:54.416Z,10.18
2023-02-02T11:13:30.396Z,9.45
2023-02-02T11:16:21.610Z,8.55
2023-02-02T11:18:51.203Z,9.98
2023-02-02T11:21:24.614Z,10.38
2023-02-02T11:23:56.181Z,9.95
2023-02-02T11:26:26.756Z,10.10
2023-02-02T11:28:59.853Z,9.80
2023-02-02T11:31:34.818Z,7.85
2023-02-02T11:34:18.271Z,7.90
2023-02-02T11:37:11.834Z,7.95
2023-02-02T11:39:44.131Z,8.90
2023-02-02T11:42:45.355Z,9.65
2023-02-02T11:45:34.673Z,9.00
2023-02-02T11:48:09.666Z,7.30
2023-02-02T11:50:38.988Z,7.88
2023-02-02T11:53:27.896Z,7.85
2023-02-02T11:55:59.163Z,8.32
2023-02-02T11:58:30.771Z,7.90
2023-02-02T12:01:02.415Z,8.50
2023-02-02T12:03:37.701Z,8.48
2023-02-02T12:06:21.370Z,8.98
2023-02-02T12:09:11.587Z,9.48
2023-02-02T12:11:56.554Z,8.77
2023-02-02T12:14:37.046Z,9.50
2023-02-02T12:17:18.348Z,9.63
2023-02-02T12:20:05.101Z,8.82
2023-02-02T12:22:51.597Z,8.68
2023-02-02T12:25:54.967Z,7.10
2023-02-02T12:28:39.048Z,7.20
2023-02-02T12:33:53.074Z,7.72
2023-02-02T12:36:33.389Z,7.47
2023-02-02T12:39:34.446Z,9.30
2023-02-02T12:42:26.552Z,10.70
2023-02-02T12:45:31.860Z,7.47
2023-02-02T12:48:15.265Z,7.35
2023-02-02T12:51:00.523Z,8.50
2023-02-02T12:53:39.916Z,7.30
2023-02-02T12:56:23.092Z,7.80
2023-02-02T12:59:03.831Z,7.85
2023-02-02T13:01:49.505Z,7.78
2023-02-02T13:04:32.583Z,8.85
2023-02-02T13:07:34.183Z,7.95
2023-02-02T13:10:13.135Z,9.45
2023-02-02T13:12:46.295Z,8.70
2023-02-02T13:15:23.885Z,8.95
2023-02-02T13:17:56.957Z,9.10
2023-02-02T13:20:38.355Z,9.97
2023-02-02T13:23:14.025Z,9.93
2023-02-02T13:25:48.868Z,11.38
2023-02-02T13:28:29.659Z,9.38
2023-02-02T13:31:06.353Z,10.48
2023-02-02T13:33:38.237Z,8.98
2023-02-02T13:36:15.833Z,9.18
2023-02-02T13:38:46.245Z,9.07
2023-02-02T13:41:18.644Z,9.90
2023-02-02T13:43:56.047Z,8.50
2023-02-02T13:46:34.723Z,10.15
2023-02-02T13:49:13.489Z,10.88
2023-02-02T13:51:58.387Z,10.73
2023-02-02T13:55:10.199Z,10.77
2023-02-02T13:58:13.442Z,11.00
2023-02-02T14:00:47.746Z,12.45
2023-02-02T14:03:32.395Z,13.63
2023-02-02T14:06:09.065Z,11.93
2023-02-02T14:08:38.987Z,11.70
2023-02-02T14:11:10.025Z,12.18
2023-02-02T14:14:04.194Z,14.80
2023-02-02T14:16:52.197Z,13.32
2023-02-02T14:19:55.917Z,14.82
2023-02-02T14:22:45.822Z,12.13
2023-02-02T14:25:53.737Z,12.70
2023-02-02T14:28:56.441Z,11.85
2023-02-02T14:31:49.321Z,12.20
2023-02-02T14:34:36.021Z,11.80
2023-02-02T14:37:40.235Z,11.57
2023-02-02T14:40:26.981Z,11.55
2023-02-02T14:43:26.495Z,9.55
2023-02-02T14:46:23.942Z,10.82
2023-02-02T14:49:13.527Z,11.13
2023-02-02T14:51:53.465Z,10.48
2023-02-02T14:54:28.624Z,12.18
2023-02-02T14:57:01.775Z,10.60
2023-02-02T14:59:36.207Z,11.82
2023-02-02T15:02:16.509Z,12.07
2023-02-02T15:04:47.952Z,11.48
2023-02-02T15:07:52.507Z,14.85
2023-02-02T15:10:55.072Z,12.50
2023-02-02T15:13:37.797Z,11.68
2023-02-02T15:16:15.930Z,13.75
2023-02-02T15:18:50.631Z,13.35
2023-02-02T15:21:23.874Z,13.68
2023-02-02T15:23:53.366Z,13.82
2023-02-02T15:26:27.187Z,14.68
2023-02-02T15:31:35.375Z,13.60
2023-02-02T15:34:12.697Z,14.98
2023-02-02T15:36:46.768Z,14.65
2023-02-02T15:39:27.246Z,14.73
2023-02-02T15:42:11.291Z,15.30
2023-02-02T15:44:42.011Z,14.90
2023-02-02T15:47:17.412Z,14.50
2023-02-02T15:49:46.610Z,15.57
2023-02-02T15:52:20.452Z,14.85
2023-02-02T15:54:54.726Z,14.52
2023-02-02T15:57:29.603Z,14.75
2023-02-02T16:00:01.722Z,14.23
2023-02-02T16:02:38.891Z,14.95
2023-02-02T16:05:27.391Z,15.77
2023-02-02T16:08:05.656Z,16.67
2023-02-02T16:10:36.701Z,17.33
2023-02-02T16:13:05.940Z,17.67
2023-02-02T16:15:36.491Z,16.55
2023-02-02T16:18:07.986Z,16.50
2023-02-02T16:20:39.611Z,17.60
2023-02-02T19:27:57.804Z,17.00
2023-02-02T19:30:28.556Z,15.43
2023-02-02T19:32:59.084Z,16.13
2023-02-02T19:35:32.236Z,16.75
2023-02-02T19:38:03.961Z,16.20
2023-02-02T19:40:35.832Z,16.17
2023-02-02T19:43:33.350Z,16.50
2023-02-02T19:46:02.858Z,17.23
2023-02-02T19:48:36.750Z,17.02
2023-02-02T19:51:37.594Z,16.80
2023-02-02T19:54:23.755Z,17.63
2023-02-02T19:56:57.235Z,16.77
2023-02-02T19:59:34.519Z,17.05
2023-02-02T20:02:42.223Z,16.88
2023-02-02T20:05:19.986Z,16.08
2023-02-02T20:07:53.649Z,16.27
2023-02-02T20:10:28.890Z,15.93
2023-02-02T20:12:59.671Z,15.97
2023-02-02T20:15:52.672Z,16.25
2023-02-02T20:18:24.747Z,16.40
2023-02-02T20:20:56.618Z,17.13
2023-02-02T20:23:37.978Z,16.05
2023-02-02T20:26:18.197Z,16.05
2023-02-02T20:28:48.662Z,15.93
2023-02-02T20:31:22.152Z,15.85
2023-02-02T20:33:54.141Z,15.70
2023-02-02T20:36:36.999Z,16.05
2023-02-02T20:39:27.381Z,15.95
2023-02-02T20:41:58.895Z,15.93
2023-02-02T20:44:29.446Z,15.48
2023-02-02T20:47:00.912Z,14.82
2023-02-02T20:49:32.177Z,14.82
2023-02-02T20:52:05.288Z,15.65
2023-02-02T20:54:36.088Z,15.82
2023-02-02T20:57:06.919Z,16.92
2023-02-02T20:59:37.123Z,16.75
2023-02-02T21:02:09.105Z,15.93
2023-02-02T21:04:39.409Z,16.25
2023-02-02T21:07:09.930Z,15.40
2023-02-02T21:09:40.351Z,16.90
2023-02-02T21:12:10.195Z,14.63
2023-02-02T21:14:40.532Z,16.45
2023-02-02T21:17:15.266Z,15.63
2023-02-02T21:19:49.856Z,15.43
2023-02-02T21:22:19.767Z,16.08
2023-02-02T21:24:49.913Z,16.48
2023-02-02T21:27:20.296Z,15.27
2023-02-02T21:29:50.615Z,14.05
2023-02-02T21:32:21.471Z,14.63
2023-02-02T21:34:51.443Z,13.93
2023-02-02T21:37:21.237Z,14.23
2023-02-02T21:39:51.909Z,14.55
2023-02-02T21:42:22.864Z,13.57
2023-02-02T21:44:56.527Z,14.73
2023-02-02T21:47:35.089Z,13.77
2023-02-02T21:50:16.057Z,13.68
2023-02-02T21:52:45.990Z,14.05
2023-02-02T21:55:34.336Z,14.52
2023-02-02T21:58:16.307Z,13.73
2023-02-02T22:00:46.560Z,15.05
2023-02-02T22:03:34.449Z,14.88
2023-02-02T22:06:22.594Z,14.00
2023-02-02T22:08:53.265Z,15.07
2023-02-02T22:11:29.716Z,13.73
2023-02-02T22:14:04.730Z,15.20
2023-02-02T22:16:39.966Z,15.40
2023-02-02T22:19:26.278Z,14.60
2023-02-02T22:22:11.092Z,14.30
2023-02-02T22:24:40.975Z,15.23
2023-02-02T22:27:38.512Z,14.18
2023-02-02T22:30:21.816Z,14.07
2023-02-02T22:32:51.805Z,13.52
2023-02-02T22:35:29.762Z,13.70
2023-02-02T22:37:59.669Z,14.88
2023-02-02T22:40:29.525Z,15.18
2023-02-02T22:43:01.091Z,13.98
2023-02-02T22:45:31.358Z,14.32
2023-02-02T22:48:01.225Z,14.90
2023-02-02T22:50:35.082Z,14.70
2023-02-02T22:53:05.929Z,12.88
2023-02-02T22:55:35.659Z,14.70
2023-02-02T22:58:05.368Z,14.23
2023-02-02T23:00:35.196Z,13.73
2023-02-02T23:03:05.323Z,14.95
2023-02-02T23:05:36.727Z,14.38
2023-02-02T23:08:06.426Z,14.05
2023-02-02T23:10:36.268Z,14.90
2023-02-02T23:13:06.682Z,15.05
2023-02-02T23:15:36.747Z,13.77
2023-02-02T23:18:06.566Z,14.38
2023-02-02T23:20:37.198Z,15.07
2023-02-02T23:23:06.800Z,14.02
2023-02-02T23:25:36.997Z,16.27
2023-02-02T23:28:09.958Z,15.23
2023-02-02T23:30:39.566Z,15.20
2023-02-02T23:33:09.261Z,15.25
2023-02-02T23:35:40.032Z,15.85
2023-02-02T23:38:09.546Z,15.10
2023-02-02T23:40:39.139Z,15.48
2023-02-02T23:43:08.928Z,15.73
2023-02-02T23:45:43.827Z,15.00
2023-02-02T23:48:18.789Z,14.50
2023-02-02T23:50:49.527Z,14.80
2023-02-02T23:53:23.701Z,13.52
2023-02-02T23:55:59.278Z,14.35
2023-02-02T23:58:32.580Z,13.20
